• Join FlightAware (Why Join?)
  • Login
  • US Flag 
Rudolph Flight #1: Scheduled 
08:34PM EST


 

Airport Tracker/Info


-or-


 

Live Flight TrackerFlight Track Log ✈ EJA951 ✈ 31-Oct-2013 ✈ KLAX - KLAS

Flight Track Log - Related Links

Times and Time Zones

All times are in EDT time to prevent confusion due to time zone crossing. See the EJA951 flight status page for this flight to view local times or setup timezone preferences in your user account.

Time Position Orientation Groundspeed Altitude Reporting Facility
EDT Latitude Longitude Course Direction KTS MPH feet Rate Location/Type
02:34PM 33.9317 -118.4322 256° West 202 232 1,700  Level Los Angeles Center
02:36PM 33.9178 -118.4972 256° West 220 253 4,100 3,240 Climbing Los Angeles Center
02:37PM 33.8767 -118.5947 243° Southwest 267 307 8,500 3,300 Climbing Los Angeles Center
02:38PM 33.8211 -118.5533 148° Southeast 283 326 11,000 2,520 Climbing Los Angeles Center
02:39PM 33.8753 -118.4817 48° Northeast 290 334 13,800 2,520 Climbing Los Angeles Center
02:40PM 33.9408 -118.4225 37° Northeast 304 350 16,300 2,220 Climbing Los Angeles Center
02:41PM 33.9917 -118.3328 56° Northeast 320 368 18,400 1,260 Climbing Los Angeles Center
02:42PM 34.0489 -118.2314 56° Northeast 363 418 19,000 240 Climbing Los Angeles Center
02:43PM 34.1131 -118.1175 56° Northeast 403 464 19,000 780 Level Los Angeles Center
02:44PM 34.1803 -117.9983 56° Northeast 424 488 20,700 1,140 Climbing Los Angeles Center
02:45PM 34.2567 -117.8614 56° Northeast 413 475 21,400 960 Climbing Los Angeles Center
02:46PM 34.3208 -117.7461 56° Northeast 413 475 22,800 1,380 Climbing Los Angeles Center
02:47PM 34.3897 -117.6222 56° Northeast 418 481 24,300 1,020 Climbing Los Angeles Center
02:48PM 34.4553 -117.5025 56° Northeast 427 491 25,000 300 Climbing Los Angeles Center
02:49PM 34.5236 -117.3794 56° Northeast 440 506 25,000  Level Los Angeles Center
02:50PM 34.5914 -117.2558 56° Northeast 444 511 25,000  Level Los Angeles Center
02:51PM 34.6592 -117.1325 56° Northeast 443 510 25,000  Level Los Angeles Center
02:52PM 34.7397 -116.9836 57° Northeast 442 509 25,000  Level Los Angeles Center
02:53PM 34.8217 -116.8344 56° Northeast 444 511 25,000  Level Los Angeles Center
02:54PM 34.8892 -116.7106 56° Northeast 441 507 25,000 -60 Level Los Angeles Center
02:55PM 34.9561 -116.5872 56° Northeast 441 507 24,900 -420 Descending Los Angeles Center
02:56PM 35.0406 -116.4775 47° Northeast 444 511 24,200 -660 Descending Los Angeles Center
02:57PM 35.1408 -116.3519 46° Northeast 436 502 23,600 -1,140 Descending Los Angeles Center
02:58PM 35.2236 -116.2492 45° Northeast 428 493 21,900 -1,620 Descending Los Angeles Center
03:00PM 35.3044 -116.1461 46° Northeast 424 488 20,300 -1,500 Descending Los Angeles Center
03:01PM 35.3825 -116.0489 45° Northeast 404 465 18,800 -1,680 Descending Los Angeles Center
03:01PM 35.4233 -115.9981 45° Northeast 410 472 17,900 -1,380 Descending Los Angeles Center
03:02PM 35.4625 -115.9483 46° Northeast 412 474 17,400 -1,500 Descending Los Angeles Center
03:02PM 35.4931 -115.9103 45° Northeast 396 456 16,600 -1,380 Descending Los Angeles Center
03:03PM 35.5208 -115.8708 49° Northeast 373 429 16,000 -1,260 Descending Los Angeles Center
03:03PM 35.5628 -115.8219 43° Northeast 307 353 15,200 -1,440 Descending Los Angeles Center
03:04PM 35.6022 -115.7719 46° Northeast 300 345 14,500 -1,140 Descending Los Angeles Center
03:04PM 35.6206 -115.7483 46° Northeast 299 344 14,100 -1,200 Descending Los Angeles Center
03:05PM 35.6608 -115.6964 46° Northeast 302 348 13,300 -1,140 Descending Los Angeles Center
03:05PM 35.6781 -115.6744 46° Northeast 300 345 13,000 -300 Descending Los Angeles Center
03:06PM 35.7175 -115.6236 46° Northeast 298 343 13,000  Level Los Angeles Center
03:06PM 35.7394 -115.5989 42° Northeast 296 341 13,000  Level Los Angeles Center
03:07PM 35.8031 -115.5731 18° North 287 330 13,000  Level Los Angeles Center
03:07PM 35.7925 -115.5711 172° South 291 335 13,000  Level Los Angeles Center
03:08PM 35.8881 -115.5669 North 288 331 13,000  Level Los Angeles Center
03:08PM 35.8906 -115.5661 15° North 289 333 13,000  Level Los Angeles Center
03:09PM 35.9603 -115.5514 10° North 290 334 13,000  Level Los Angeles Center
03:09PM 35.9719 -115.5406 37° Northeast 290 334 13,000 -660 Level Los Angeles Center
03:10PM 36.0072 -115.4486 65° Northeast 310 357 12,300 -1,020 Descending Los Angeles Center
03:10PM 36.0122 -115.4314 70° East 309 356 12,000 -1,680 Descending Los Angeles Center
03:11PM 36.0294 -115.3511 75° East 279 321 10,600 -1,560 Descending Los Angeles Center
03:11PM 36.0275 -115.3339 98° East 273 314 10,400 -900 Descending Los Angeles Center
03:12PM 36.0233 -115.2733 95° East 264 304 9,800 -900 Descending Los Angeles Center
03:12PM 36.0211 -115.2442 95° East 264 304 9,500 -1,020 Descending Los Angeles Center
03:13PM 36.0158 -115.1694 95° East 264 304 8,700 -780 Descending Los Angeles Center
03:13PM 36.0147 -115.1589 97° East 261 300 8,700 -720 Level Los Angeles Center
03:14PM 36.0092 -115.0786 95° East 269 310 8,000 -720 Descending Los Angeles Center
03:14PM 36.0094 -115.0678 88° East 264 304 8,000 -360 Level Los Angeles Center
03:15PM 36.0497 -115.0278 39° Northeast 177 204 7,600 -600 Descending Los Angeles Center
03:16PM 36.0575 -115.0247 18° North 197 227 7,300 -1,200 Descending Los Angeles Center
03:16PM 36.0942 -115.0131 14° North 179 206 6,500 -1,380 Descending Los Angeles Center
03:17PM 36.1164 -115.0094 North 182 209 5,900 -1,320 Descending Los Angeles Center
03:17PM 36.1239 -115.0406 287° West 180 207 5,200 -1,500 Descending Los Angeles Center
03:18PM 36.1269 -115.0669 278° West 177 204 4,400 -1,620 Descending Los Angeles Center
03:18PM 36.1308 -115.1022 278° West 174 200 3,600 -900 Descending Los Angeles Center
03:19PM 36.1342 -115.1236 281° West 172 198 3,500 -720 Descending Los Angeles Center
03:19PM 36.1228 -115.1447 236° Southwest 140 161 2,900 -1,200 Descending Los Angeles Center
03:20PM 36.1061 -115.1511 197° South 155 178 2,300 -1,080 Descending Los Angeles Center
03:22PM 36.0801 -115.1523 270° West  Level Estimated